Stations météo

Publicité
Kielder Castle, Grande-Bretagne (99186): Température de l'air & dewpoint: 14.07.2018 00:00:00 - 20.07.2018 00:00:00 (BST)Kielder Castle, Grande-Bretagne (99186): Température de l'air -20cm & Température de l'air -100cm: 14.07.2018 00:00:00 - 20.07.2018 00:00:00 (BST)Kielder Castle, Grande-Bretagne (99186): Quantités de précipitations: 14.07.2018 00:00:00 - 20.07.2018 00:00:00 (BST)
Date & Time tt [°C] td [°C] tt -20cm [°C] tt -100cm [°C] rr [mm]
20.07.2018 00:00:00 - - - - -
19.07.2018 23:00:00 10,7 8,2 - - 0,0
19.07.2018 22:00:00 12,5 7,6 - - 0,0
19.07.2018 21:00:00 15,1 7,3 - - 0,0
19.07.2018 20:00:00 17,1 8,5 - - 0,0
19.07.2018 19:00:00 18,2 9,6 - - 0,0
19.07.2018 18:00:00 19,8 8,8 - - 0,0
19.07.2018 17:00:00 21,0 10,1 - - 0,0
19.07.2018 16:00:00 21,3 10,0 - - 0,0
19.07.2018 15:00:00 20,0 9,4 - - 0,0
19.07.2018 14:00:00 19,8 10,8 - - 0,0
19.07.2018 13:00:00 20,0 10,8 - - 0,0
19.07.2018 12:00:00 18,2 10,8 - - 0,0
19.07.2018 11:00:00 17,3 11,7 - - 0,0
19.07.2018 10:00:00 16,8 12,4 17,5 15,7 0,0
19.07.2018 09:00:00 15,0 12,3 - - 0,0
19.07.2018 08:00:00 13,7 12,7 - - 0,0
19.07.2018 07:00:00 10,5 10,2 - - 0,0
19.07.2018 06:00:00 9,1 8,5 - - 0,0
19.07.2018 05:00:00 9,5 9,2 - - 0,0
19.07.2018 04:00:00 8,6 8,1 - - 0,0
19.07.2018 03:00:00 9,3 8,6 - - 0,0
19.07.2018 02:00:00 9,9 9,0 - - 0,0
19.07.2018 01:00:00 10,3 9,4 - - 0,0
19.07.2018 00:00:00 11,4 10,3 - - 0,0
18.07.2018 23:00:00 12,8 11,3 - - 0,0
18.07.2018 22:00:00 14,6 11,8 - - 0,0
18.07.2018 21:00:00 16,7 12,5 - - 0,0
18.07.2018 20:00:00 18,2 10,9 - - 0,0
18.07.2018 19:00:00 18,5 12,2 - - 0,0
18.07.2018 18:00:00 19,7 9,8 - - 0,0
18.07.2018 17:00:00 19,0 11,5 - - 0,0
18.07.2018 16:00:00 18,0 11,2 - - 0,0
18.07.2018 15:00:00 17,9 10,9 - - 0,0
18.07.2018 14:00:00 18,3 11,7 - - 0,0
18.07.2018 13:00:00 18,4 12,1 - - 0,0
18.07.2018 12:00:00 17,3 11,6 - - 0,0
18.07.2018 11:00:00 16,3 11,6 - - 0,0
18.07.2018 10:00:00 15,2 11,6 17,5 15,7 0,0
18.07.2018 09:00:00 12,8 10,3 - - 0,0
18.07.2018 08:00:00 10,8 9,6 - - 0,0
18.07.2018 07:00:00 8,0 7,7 - - 0,0
18.07.2018 06:00:00 6,0 5,8 - - 0,0
18.07.2018 05:00:00 6,0 5,6 - - 0,0
18.07.2018 04:00:00 6,8 6,3 - - 0,0
18.07.2018 03:00:00 7,7 7,4 - - 0,0
18.07.2018 02:00:00 7,3 6,9 - - 0,0
18.07.2018 01:00:00 8,0 7,5 - - 0,0
18.07.2018 00:00:00 9,2 8,3 - - 0,0
17.07.2018 23:00:00 9,9 8,8 - - 0,0
17.07.2018 22:00:00 12,0 9,0 - - 0,0
17.07.2018 21:00:00 13,7 9,5 - - 0,0
17.07.2018 20:00:00 15,3 9,2 - - 0,0
17.07.2018 19:00:00 16,1 8,6 - - 0,0
17.07.2018 18:00:00 16,5 10,1 - - 0,0
17.07.2018 17:00:00 16,0 10,7 - - 0,0
17.07.2018 16:00:00 15,5 11,1 - - 0,0
17.07.2018 15:00:00 16,2 10,7 - - 0,0
17.07.2018 14:00:00 14,3 10,7 - - 0,0
17.07.2018 13:00:00 16,1 11,2 - - 0,0
17.07.2018 12:00:00 15,5 11,7 - - 0,0
17.07.2018 11:00:00 15,1 12,6 - - 0,0
17.07.2018 10:00:00 14,3 12,9 18,2 15,7 0,0
17.07.2018 09:00:00 13,2 12,2 - - 0,0
17.07.2018 08:00:00 12,6 12,2 - - 0,0
17.07.2018 07:00:00 11,9 11,9 - - 0,0
17.07.2018 06:00:00 10,8 10,7 - - 0,0
17.07.2018 05:00:00 10,9 10,6 - - 0,0
17.07.2018 04:00:00 11,5 11,3 - - 0,0
17.07.2018 03:00:00 11,8 11,6 - - 0,0
17.07.2018 02:00:00 12,2 11,9 - - 0,0
17.07.2018 01:00:00 12,4 12,0 - - 0,0
17.07.2018 00:00:00 12,5 12,1 - - 0,4
16.07.2018 23:00:00 12,5 11,9 - - 0,0
16.07.2018 22:00:00 12,8 12,1 - - 0,2
16.07.2018 21:00:00 13,1 11,9 - - 1,4
16.07.2018 20:00:00 14,7 11,3 - - 0,2
16.07.2018 19:00:00 16,4 11,0 - - 0,0
16.07.2018 18:00:00 18,1 9,9 - - 0,0
16.07.2018 17:00:00 19,4 10,7 - - 0,0
16.07.2018 16:00:00 19,8 12,1 - - 0,0
16.07.2018 15:00:00 18,8 12,9 - - 0,0
16.07.2018 14:00:00 16,5 12,0 - - 0,0
16.07.2018 13:00:00 16,1 12,7 - - 0,0
16.07.2018 12:00:00 16,7 12,6 - - 0,0
16.07.2018 11:00:00 16,6 13,2 - - 0,0
16.07.2018 10:00:00 17,1 13,9 18,7 15,7 0,0
16.07.2018 09:00:00 16,6 14,9 - - 0,0
16.07.2018 08:00:00 15,9 14,6 - - 0,0
16.07.2018 07:00:00 15,6 14,7 - - 0,0
16.07.2018 06:00:00 15,4 14,3 - - 0,0
16.07.2018 05:00:00 15,2 14,3 - - 0,0
16.07.2018 04:00:00 15,0 14,2 - - 0,0
16.07.2018 03:00:00 15,2 14,1 - - 0,0
16.07.2018 02:00:00 15,6 14,1 - - 0,0
16.07.2018 01:00:00 15,8 14,0 - - 0,0
16.07.2018 00:00:00 15,7 14,0 - - 0,0
15.07.2018 23:00:00 15,0 13,3 - - 0,0
15.07.2018 22:00:00 16,0 13,6 - - 0,0
15.07.2018 21:00:00 16,9 13,5 - - 0,0
15.07.2018 20:00:00 18,5 13,8 - - 0,0
15.07.2018 19:00:00 19,8 13,6 - - 0,0
15.07.2018 18:00:00 20,9 13,5 - - 0,0
15.07.2018 17:00:00 21,4 14,5 - - 0,0
15.07.2018 16:00:00 21,5 14,2 - - 0,0
15.07.2018 15:00:00 21,6 13,9 - - 0,0
15.07.2018 14:00:00 22,7 12,6 - - 0,0
15.07.2018 13:00:00 23,5 13,4 - - 0,0
15.07.2018 12:00:00 22,6 12,7 - - 0,0
15.07.2018 11:00:00 21,3 13,5 - - 0,0
15.07.2018 10:00:00 19,3 13,5 18,0 15,7 0,0
15.07.2018 09:00:00 17,7 13,1 - - 0,0
15.07.2018 08:00:00 16,4 14,5 - - 0,0
15.07.2018 07:00:00 11,5 11,2 - - 0,0
15.07.2018 06:00:00 9,0 8,7 - - 0,0
15.07.2018 05:00:00 9,0 8,7 - - 0,0
15.07.2018 04:00:00 9,2 8,8 - - 0,0
15.07.2018 03:00:00 10,0 9,5 - - 0,0
15.07.2018 02:00:00 10,9 10,3 - - 0,0
15.07.2018 01:00:00 11,8 10,8 - - 0,0
15.07.2018 00:00:00 12,9 11,8 - - 0,0
14.07.2018 23:00:00 13,3 10,5 - - 0,0
14.07.2018 22:00:00 15,2 10,6 - - 0,0
14.07.2018 21:00:00 17,2 10,5 - - 0,0
14.07.2018 20:00:00 18,7 11,0 - - 0,0
14.07.2018 19:00:00 19,6 11,5 - - 0,0
14.07.2018 18:00:00 20,6 11,9 - - 0,0
14.07.2018 17:00:00 21,1 12,6 - - 0,0
14.07.2018 16:00:00 21,7 13,0 - - 0,0
14.07.2018 15:00:00 21,7 12,6 - - 0,0
14.07.2018 14:00:00 22,2 13,6 - - 0,0
14.07.2018 13:00:00 20,2 12,2 - - 0,0
14.07.2018 12:00:00 20,4 11,9 - - 0,0
14.07.2018 11:00:00 17,5 12,1 - - 0,0
14.07.2018 10:00:00 17,1 12,3 18,0 15,7 0,0
14.07.2018 09:00:00 15,4 12,2 - - 0,0
14.07.2018 08:00:00 14,0 11,9 - - 0,0
14.07.2018 07:00:00 13,2 12,4 - - 0,0
14.07.2018 06:00:00 11,1 10,5 - - 0,0
14.07.2018 05:00:00 12,1 11,4 - - 0,0
14.07.2018 04:00:00 11,7 11,0 - - 0,0
14.07.2018 03:00:00 11,5 10,7 - - 0,0
14.07.2018 02:00:00 12,1 10,9 - - 0,0
14.07.2018 01:00:00 12,6 11,4 - - 0,0
14.07.2018 00:00:00 13,2 11,8 - - 0,0

tt = Température de l'air
td = dewpoint
tt -20cm = Température de l'air -20cm
tt -100cm = Température de l'air -100cm
rr = Quantités de précipitations

stations d'obs. à proximité